EDNY

Friedrichshafen Airport

Friedrichshafen, Germany
METAR EDNY 211520Z 03003KT 310V070 9999 OVC070 00/M04 Q1018
Observed Flight Rules
Jan-21 @ 15:20 UTC (36 minutes ago) Visual Flight Rules
Wind Visibility Clouds
30° at 3 knots 10,000+ meters
  • Overcast at 7,000' AGL
Temperatures Readings
Current 0°C / 32°F
Dewpoint -4°C / 25°F
Humidity 75%
Altimeter 30.06" Hg
Pressure 1017.92 hPa
Elevation 424
METAR EDNY 211520Z 03003KT 310V070 9999 OVC070 00/M04 Q1018
Observed Flight Rules
Jan-21 @ 15:20 UTC
(36 minutes ago)
VFR
Wind Visibility
30° at 3 knots 10,000+ meters
Clouds
  • Overcast at 7,000' AGL
Temperature Dewpoint
0°C / 32°F -4°C / 25°F
Humidity Altimeter Pressure
75% 30.06" Hg 1017.92 hPa